createdAt,value
2022-10-28T00:00:49.784Z,64.51
2022-10-28T00:03:43.676Z,64.83
2022-10-28T00:06:35.473Z,64.96
2022-10-28T00:09:24.243Z,65.09
2022-10-28T00:12:12.085Z,65.34
2022-10-28T00:14:59.727Z,65.42
2022-10-28T00:17:47.203Z,65.47
2022-10-28T00:20:34.753Z,65.59
2022-10-28T00:23:23.650Z,66.40
2022-10-28T00:26:19.251Z,66.04
2022-10-28T00:29:13.990Z,65.93
2022-10-28T00:32:01.660Z,66.34
2022-10-28T00:34:49.329Z,65.79
2022-10-28T00:37:37.309Z,65.46
2022-10-28T00:40:25.495Z,65.51
2022-10-28T00:43:13.229Z,65.47
2022-10-28T00:46:01.971Z,65.74
2022-10-28T00:48:55.709Z,66.19
2022-10-28T00:51:45.989Z,65.90
2022-10-28T00:54:35.011Z,65.78
2022-10-28T00:57:29.143Z,66.02
2022-10-28T01:00:17.043Z,65.81
2022-10-28T01:03:05.000Z,66.11
2022-10-28T01:05:53.829Z,66.57
2022-10-28T01:08:41.220Z,66.64
2022-10-28T01:11:41.142Z,66.25
2022-10-28T01:14:37.245Z,65.69
2022-10-28T01:17:39.722Z,65.93
2022-10-28T01:20:45.306Z,65.60
2022-10-28T01:24:08.607Z,65.58
2022-10-28T01:27:18.194Z,65.71
2022-10-28T01:30:15.118Z,65.20
2022-10-28T01:33:16.429Z,64.97
2022-10-28T01:36:24.907Z,65.61
2022-10-28T01:39:21.784Z,65.64
2022-10-28T01:42:18.388Z,64.95
2022-10-28T01:45:31.091Z,65.15
2022-10-28T01:51:51.289Z,66.09
2022-10-28T01:54:42.100Z,65.80
2022-10-28T01:57:33.685Z,64.93
2022-10-28T02:00:21.464Z,65.37
2022-10-28T02:03:10.034Z,65.42
2022-10-28T02:06:00.603Z,65.87
2022-10-28T02:09:06.199Z,66.23
2022-10-28T02:12:14.810Z,65.99
2022-10-28T02:15:15.733Z,66.63
2022-10-28T02:18:18.459Z,66.31
2022-10-28T02:21:25.186Z,66.24
2022-10-28T02:24:32.627Z,66.61
2022-10-28T02:27:40.816Z,66.21
2022-10-28T02:30:54.600Z,66.18
2022-10-28T02:33:44.705Z,66.24
2022-10-28T02:36:37.497Z,66.20
2022-10-28T02:39:42.658Z,65.80
2022-10-28T02:42:41.231Z,65.92
2022-10-28T02:45:43.348Z,66.07
2022-10-28T02:48:43.581Z,65.82
2022-10-28T02:51:40.419Z,65.63
2022-10-28T02:54:37.888Z,65.27
2022-10-28T02:57:32.942Z,65.36
2022-10-28T03:00:24.704Z,65.72
2022-10-28T03:03:13.414Z,65.78
2022-10-28T03:06:01.102Z,65.79
2022-10-28T03:08:49.058Z,65.82
2022-10-28T03:11:36.651Z,65.23
2022-10-28T03:14:24.408Z,65.26
2022-10-28T03:17:12.343Z,64.93
2022-10-28T03:20:00.002Z,64.96
2022-10-28T03:22:48.686Z,64.61
2022-10-28T03:25:42.314Z,64.49
2022-10-28T03:28:35.787Z,64.56
2022-10-28T03:31:23.706Z,64.57
2022-10-28T03:34:11.383Z,64.60
2022-10-28T03:36:59.134Z,64.72
2022-10-28T03:39:47.154Z,64.69
2022-10-28T03:42:37.562Z,64.73
2022-10-28T03:48:20.822Z,64.85
2022-10-28T03:51:09.072Z,64.85
2022-10-28T03:53:56.971Z,65.12
2022-10-28T03:56:44.933Z,64.90
2022-10-28T03:59:32.596Z,64.75
2022-10-28T04:02:20.462Z,64.70
2022-10-28T04:05:08.784Z,64.86
2022-10-28T04:07:56.897Z,64.85
2022-10-28T04:10:47.522Z,65.41
2022-10-28T04:13:35.798Z,65.61
2022-10-28T04:16:23.378Z,65.75
2022-10-28T04:19:11.314Z,65.85
2022-10-28T04:21:59.101Z,65.85
2022-10-28T04:24:47.030Z,65.62
2022-10-28T04:27:34.835Z,65.53
2022-10-28T04:30:22.590Z,65.36
2022-10-28T04:33:12.486Z,64.98
2022-10-28T04:35:59.853Z,64.79
2022-10-28T04:38:47.458Z,64.66
2022-10-28T04:41:35.160Z,64.81
2022-10-28T04:44:22.989Z,64.92
2022-10-28T04:47:10.645Z,65.07
2022-10-28T04:49:58.497Z,65.01
2022-10-28T04:52:46.303Z,65.12
2022-10-28T04:55:34.243Z,65.34
2022-10-28T04:58:22.148Z,65.33
2022-10-28T05:01:11.213Z,65.39
2022-10-28T05:03:59.103Z,65.27
2022-10-28T05:06:49.402Z,65.20
2022-10-28T05:09:37.149Z,64.84
2022-10-28T05:12:24.808Z,64.75
2022-10-28T05:15:14.798Z,64.72
2022-10-28T05:18:02.368Z,64.64
2022-10-28T05:20:54.940Z,64.66
2022-10-28T05:23:43.130Z,64.42
2022-10-28T05:26:30.745Z,64.52
2022-10-28T05:29:19.731Z,64.57
2022-10-28T05:32:07.737Z,64.52
2022-10-28T05:34:55.372Z,64.58
2022-10-28T05:37:44.249Z,64.79
2022-10-28T05:40:35.585Z,64.59
2022-10-28T05:43:23.337Z,64.37
2022-10-28T05:46:11.425Z,64.25
2022-10-28T05:49:01.732Z,64.16
2022-10-28T05:51:49.256Z,64.36
2022-10-28T05:54:37.079Z,64.35
2022-10-28T05:57:24.851Z,64.45
2022-10-28T06:00:14.286Z,64.53
2022-10-28T06:03:11.130Z,64.41
2022-10-28T06:05:59.278Z,64.88
2022-10-28T06:08:47.001Z,65.51
2022-10-28T06:11:34.338Z,65.16
2022-10-28T06:14:23.765Z,65.20
2022-10-28T06:17:11.523Z,65.21
2022-10-28T06:19:59.567Z,65.11
2022-10-28T06:22:53.714Z,65.43
2022-10-28T06:25:41.800Z,65.32
2022-10-28T06:28:30.727Z,65.56
2022-10-28T06:31:18.536Z,65.36
2022-10-28T06:34:07.940Z,65.15
2022-10-28T06:36:55.488Z,64.85
2022-10-28T06:39:44.389Z,64.90
2022-10-28T06:42:32.252Z,64.92
2022-10-28T06:45:19.540Z,64.86
2022-10-28T06:48:10.440Z,65.48
2022-10-28T06:50:58.489Z,65.85
2022-10-28T06:53:52.607Z,65.46
2022-10-28T06:56:40.051Z,64.99
2022-10-28T06:59:27.964Z,64.62
2022-10-28T07:02:18.748Z,64.00
2022-10-28T07:05:07.429Z,63.97
2022-10-28T07:07:55.706Z,63.90
2022-10-28T07:10:43.739Z,63.65
2022-10-28T07:13:31.787Z,64.05
2022-10-28T07:16:19.476Z,64.86
2022-10-28T07:19:07.323Z,65.26
2022-10-28T07:21:55.301Z,65.02
2022-10-28T07:24:43.017Z,63.48
2022-10-28T07:27:31.124Z,61.26
2022-10-28T07:30:19.223Z,61.18
2022-10-28T07:33:07.017Z,59.79
2022-10-28T07:35:54.635Z,57.66
2022-10-28T07:38:42.303Z,59.96
2022-10-28T07:41:30.096Z,62.83
2022-10-28T07:44:17.902Z,63.87
2022-10-28T07:47:05.788Z,62.34
2022-10-28T07:49:54.552Z,61.30
2022-10-28T07:52:42.701Z,60.55
2022-10-28T07:55:30.445Z,59.70
2022-10-28T07:58:18.336Z,59.69
2022-10-28T08:01:09.413Z,61.54
2022-10-28T08:03:57.353Z,64.96
2022-10-28T08:06:45.519Z,63.18
2022-10-28T08:09:35.129Z,61.05
2022-10-28T08:12:22.736Z,57.82
2022-10-28T08:15:10.818Z,57.28
2022-10-28T08:17:58.636Z,58.59
2022-10-28T08:20:46.868Z,61.46
2022-10-28T08:23:35.485Z,61.92
2022-10-28T08:26:23.228Z,60.44
2022-10-28T08:29:12.359Z,59.43
2022-10-28T08:32:00.337Z,56.29
2022-10-28T08:34:48.105Z,54.46
2022-10-28T08:37:35.959Z,50.47
2022-10-28T08:40:36.759Z,51.19
2022-10-28T08:43:57.068Z,50.69
2022-10-28T08:47:32.567Z,47.65
2022-10-28T08:50:24.112Z,48.75
2022-10-28T08:53:55.214Z,49.28
2022-10-28T08:56:47.643Z,48.64
2022-10-28T08:59:41.663Z,47.15
2022-10-28T09:02:45.017Z,45.88
2022-10-28T09:05:33.224Z,43.92
2022-10-28T09:08:28.761Z,44.73
2022-10-28T09:11:40.128Z,44.22
2022-10-28T09:14:56.845Z,41.98
2022-10-28T09:18:04.350Z,40.49
2022-10-28T09:20:58.010Z,41.10
2022-10-28T09:23:56.760Z,43.06
2022-10-28T09:26:52.653Z,43.63
2022-10-28T09:30:29.377Z,42.70
2022-10-28T09:33:35.205Z,40.73
2022-10-28T09:36:35.021Z,41.96
2022-10-28T09:39:29.410Z,41.69
2022-10-28T09:42:28.410Z,44.02
2022-10-28T09:45:27.360Z,43.57
2022-10-28T09:48:31.469Z,42.24
2022-10-28T09:52:19.206Z,40.73
2022-10-28T09:55:20.243Z,38.48
2022-10-28T09:58:10.337Z,39.92
2022-10-28T10:00:57.907Z,41.19
2022-10-28T10:03:50.439Z,41.09
2022-10-28T10:06:42.924Z,41.32
2022-10-28T10:09:35.928Z,40.95
2022-10-28T10:12:23.352Z,40.65
2022-10-28T10:15:19.530Z,41.26
2022-10-28T10:18:15.824Z,42.37
2022-10-28T10:21:04.032Z,44.19
2022-10-28T10:23:51.777Z,46.46
2022-10-28T10:26:39.668Z,48.28
2022-10-28T10:29:28.826Z,49.48
2022-10-28T10:32:27.467Z,49.00
2022-10-28T10:35:31.353Z,47.44
2022-10-28T10:38:19.131Z,45.46
2022-10-28T10:41:07.152Z,43.80
2022-10-28T10:43:54.933Z,44.25
2022-10-28T10:46:42.710Z,43.16
2022-10-28T10:49:30.914Z,42.24
2022-10-28T10:52:23.887Z,42.44
2022-10-28T10:55:31.274Z,43.47
2022-10-28T10:58:23.919Z,42.54
2022-10-28T11:01:19.531Z,40.91
2022-10-28T11:04:16.096Z,39.59
2022-10-28T11:07:03.774Z,38.95
2022-10-28T11:09:51.991Z,38.98
2022-10-28T11:12:52.555Z,40.06
2022-10-28T11:15:40.082Z,42.23
2022-10-28T11:18:29.430Z,44.26
2022-10-28T11:21:33.650Z,44.86
2022-10-28T11:24:52.102Z,45.82
2022-10-28T11:28:22.761Z,46.89
2022-10-28T11:31:16.350Z,48.43
2022-10-28T11:34:22.370Z,48.93
2022-10-28T11:37:31.646Z,47.64
2022-10-28T11:41:02.016Z,45.94
2022-10-28T11:44:03.806Z,44.29
2022-10-28T11:47:06.825Z,42.74
2022-10-28T11:50:43.984Z,42.03
2022-10-28T11:54:20.624Z,41.63
2022-10-28T11:57:18.927Z,41.26
2022-10-28T12:00:49.171Z,40.87
2022-10-28T12:04:06.810Z,41.26
2022-10-28T12:07:11.016Z,41.44
2022-10-28T12:10:11.443Z,41.64
2022-10-28T12:13:47.203Z,42.50
2022-10-28T12:17:14.764Z,43.44
2022-10-28T12:20:24.620Z,44.80
2022-10-28T12:23:18.499Z,45.99
2022-10-28T12:26:11.993Z,47.13
2022-10-28T12:29:07.049Z,48.34
2022-10-28T12:32:05.760Z,48.99
2022-10-28T12:35:17.562Z,49.61
2022-10-28T12:38:13.968Z,50.77
2022-10-28T12:41:21.384Z,51.38
2022-10-28T12:44:19.667Z,52.23
2022-10-28T12:47:19.086Z,52.89
2022-10-28T12:50:39.545Z,53.74
2022-10-28T12:53:44.908Z,54.49
2022-10-28T12:56:49.215Z,55.06
2022-10-28T12:59:48.222Z,55.30
2022-10-28T13:02:43.519Z,55.69
2022-10-28T13:06:19.980Z,55.88
2022-10-28T13:09:39.586Z,56.10
2022-10-28T13:13:04.657Z,56.22
2022-10-28T13:16:33.673Z,56.71
2022-10-28T13:19:54.382Z,56.98
2022-10-28T13:23:15.796Z,57.45
2022-10-28T13:26:27.740Z,57.74
2022-10-28T13:29:29.214Z,58.14
2022-10-28T13:32:39.117Z,58.64
2022-10-28T13:35:29.822Z,58.99
2022-10-28T13:38:26.034Z,59.33
2022-10-28T13:41:28.642Z,59.77
2022-10-28T13:44:27.453Z,60.05
2022-10-28T13:47:14.838Z,60.52
2022-10-28T13:50:09.144Z,60.87
2022-10-28T13:53:24.732Z,61.07
2022-10-28T13:56:30.487Z,61.30
2022-10-28T13:59:32.236Z,61.62
2022-10-28T14:02:40.173Z,61.75
2022-10-28T14:05:37.411Z,62.19
2022-10-28T14:08:41.442Z,62.27
2022-10-28T14:11:30.524Z,59.34
2022-10-28T14:14:18.206Z,58.10
2022-10-28T14:17:18.279Z,59.20
2022-10-28T14:20:26.839Z,60.70
2022-10-28T14:23:20.860Z,61.85
2022-10-28T14:26:08.741Z,62.20
2022-10-28T14:28:56.607Z,60.63
2022-10-28T14:31:45.004Z,58.55
2022-10-28T14:34:39.786Z,59.40
2022-10-28T14:38:39.741Z,61.01
2022-10-28T14:42:05.062Z,62.11
2022-10-28T14:45:24.455Z,59.76
2022-10-28T14:48:52.418Z,58.62
2022-10-28T14:51:42.565Z,60.63
2022-10-28T14:54:39.590Z,62.56
2022-10-28T14:57:33.902Z,62.87
2022-10-28T15:00:26.128Z,61.31
2022-10-28T15:03:14.438Z,59.57
2022-10-28T15:06:34.089Z,59.98
2022-10-28T15:09:28.279Z,61.96
2022-10-28T15:12:18.039Z,63.95
2022-10-28T15:15:36.269Z,63.30
2022-10-28T15:18:27.401Z,60.74
2022-10-28T15:21:18.839Z,60.08
2022-10-28T15:24:09.318Z,61.08
2022-10-28T15:26:56.912Z,63.53
2022-10-28T15:29:44.773Z,62.92
2022-10-28T15:32:36.540Z,64.47
2022-10-28T15:35:27.106Z,62.48
2022-10-28T15:38:29.664Z,62.00
2022-10-28T15:41:23.858Z,58.79
2022-10-28T15:44:35.788Z,59.28
2022-10-28T15:47:37.384Z,60.85
2022-10-28T15:50:34.729Z,65.32
2022-10-28T15:53:39.024Z,64.99
2022-10-28T15:56:27.866Z,63.69
2022-10-28T15:59:22.381Z,62.70
2022-10-28T16:02:41.350Z,62.02
2022-10-28T16:05:31.818Z,61.82
2022-10-28T16:08:31.190Z,61.17
2022-10-28T16:11:22.748Z,58.55
2022-10-28T16:14:32.578Z,57.54
2022-10-28T16:17:30.928Z,60.11
2022-10-28T16:20:26.629Z,64.37
2022-10-28T16:23:18.757Z,62.75
2022-10-28T16:26:09.279Z,61.88
2022-10-28T16:28:57.056Z,61.40
2022-10-28T16:31:50.347Z,61.67
2022-10-28T16:34:38.372Z,61.36
2022-10-28T16:37:32.779Z,61.19
2022-10-28T16:40:45.562Z,61.56
2022-10-28T16:43:30.735Z,61.24
2022-10-28T16:46:18.361Z,60.56
2022-10-28T16:49:31.561Z,61.08
2022-10-28T16:52:23.143Z,61.48
2022-10-28T16:55:17.085Z,60.92
2022-10-28T16:58:04.596Z,60.49
2022-10-28T17:00:53.381Z,60.87
2022-10-28T17:03:41.571Z,60.24
2022-10-28T17:06:29.395Z,60.24
2022-10-28T17:09:17.185Z,60.38
2022-10-28T17:12:05.187Z,61.04
2022-10-28T17:14:53.436Z,60.33
2022-10-28T17:17:41.437Z,61.32
2022-10-28T17:20:29.441Z,61.34
2022-10-28T17:23:16.958Z,60.60
2022-10-28T17:26:04.760Z,60.26
2022-10-28T17:28:53.129Z,60.59
2022-10-28T17:31:41.078Z,60.64
2022-10-28T17:34:28.785Z,61.13
2022-10-28T17:37:16.846Z,61.04
2022-10-28T17:40:05.577Z,61.26
2022-10-28T17:42:54.511Z,60.87
2022-10-28T17:45:42.297Z,61.11
2022-10-28T17:48:30.526Z,61.48
2022-10-28T17:51:21.045Z,61.96
2022-10-28T17:54:09.143Z,62.69
2022-10-28T17:56:57.415Z,62.31
2022-10-28T17:59:46.162Z,61.70
2022-10-28T18:02:34.014Z,62.03
2022-10-28T18:05:22.259Z,62.02
2022-10-28T18:08:10.048Z,62.40
2022-10-28T18:10:59.892Z,63.13
2022-10-28T18:13:51.526Z,62.82
2022-10-28T18:16:39.175Z,64.17
2022-10-28T18:19:26.918Z,62.49
2022-10-28T18:22:14.789Z,62.74
2022-10-28T18:25:02.723Z,62.53
2022-10-28T18:27:50.481Z,62.75
2022-10-28T18:30:38.741Z,62.65
2022-10-28T18:33:29.327Z,63.38
2022-10-28T18:36:23.655Z,62.89
2022-10-28T18:39:11.333Z,63.31
2022-10-28T18:41:58.853Z,63.60
2022-10-28T18:44:46.990Z,62.50
2022-10-28T18:47:37.654Z,63.21
2022-10-28T18:50:25.778Z,62.76
2022-10-28T18:53:13.862Z,62.75
2022-10-28T18:56:01.563Z,62.71
2022-10-28T18:58:51.625Z,63.03
2022-10-28T19:01:46.651Z,63.50
2022-10-28T19:04:34.957Z,63.28
2022-10-28T19:07:23.152Z,63.00
2022-10-28T19:10:11.745Z,63.06
2022-10-28T19:13:00.337Z,62.46
2022-10-28T19:15:48.361Z,63.29
2022-10-28T19:18:38.381Z,62.80
2022-10-28T19:21:27.963Z,61.63
2022-10-28T19:24:17.422Z,62.61
2022-10-28T19:27:05.145Z,62.68
2022-10-28T19:29:53.003Z,62.48
2022-10-28T19:32:40.877Z,62.11
2022-10-28T19:35:29.010Z,61.84
2022-10-28T19:38:16.850Z,62.21
2022-10-28T19:41:13.812Z,62.75
2022-10-28T19:44:21.890Z,61.84
2022-10-28T19:47:09.520Z,62.42
2022-10-28T19:49:58.775Z,62.53
2022-10-28T19:52:47.111Z,62.91
2022-10-28T19:55:36.336Z,62.04
2022-10-28T19:58:24.560Z,62.80
2022-10-28T20:01:14.325Z,62.36
2022-10-28T20:04:03.123Z,62.40
2022-10-28T20:06:51.207Z,62.71
2022-10-28T20:09:39.475Z,62.24
2022-10-28T20:12:27.265Z,62.62
2022-10-28T20:15:15.310Z,62.37
2022-10-28T20:18:03.204Z,61.84
2022-10-28T20:20:51.020Z,61.82
2022-10-28T20:23:44.730Z,61.75
2022-10-28T20:26:35.745Z,61.90
2022-10-28T20:29:23.514Z,61.84
2022-10-28T20:32:11.211Z,61.65
2022-10-28T20:34:58.919Z,61.19
2022-10-28T20:37:46.708Z,61.53
2022-10-28T20:40:34.530Z,61.20
2022-10-28T20:43:24.525Z,61.51
2022-10-28T20:46:16.118Z,61.23
2022-10-28T20:49:08.776Z,61.21
2022-10-28T20:51:56.422Z,61.24
2022-10-28T20:54:44.138Z,61.48
2022-10-28T20:57:32.413Z,62.23
2022-10-28T21:00:19.877Z,61.65
2022-10-28T21:03:07.725Z,61.86
2022-10-28T21:05:55.273Z,62.14
2022-10-28T21:08:43.845Z,61.79
2022-10-28T21:11:31.736Z,61.71
2022-10-28T21:14:19.307Z,62.03
2022-10-28T21:17:07.156Z,61.78
2022-10-28T21:22:53.077Z,61.56
2022-10-28T21:25:42.403Z,61.51
2022-10-28T21:28:32.886Z,61.64
2022-10-28T21:31:21.905Z,61.55
2022-10-28T21:34:09.488Z,61.61
2022-10-28T21:36:57.458Z,60.91
2022-10-28T21:39:47.213Z,61.52
2022-10-28T21:42:35.297Z,61.22
2022-10-28T21:45:24.360Z,60.87
2022-10-28T21:48:11.952Z,60.64
2022-10-28T21:51:02.502Z,60.48
2022-10-28T21:53:50.371Z,60.72
2022-10-28T21:56:37.899Z,60.55
2022-10-28T21:59:25.624Z,60.67
2022-10-28T22:02:13.876Z,60.57
2022-10-28T22:05:01.881Z,60.69
2022-10-28T22:07:49.741Z,60.85
2022-10-28T22:10:37.595Z,60.58
2022-10-28T22:13:25.347Z,60.44
2022-10-28T22:16:16.940Z,60.54
2022-10-28T22:19:08.441Z,60.50
2022-10-28T22:21:56.198Z,60.68
2022-10-28T22:24:43.951Z,60.75
2022-10-28T22:27:31.960Z,60.41
2022-10-28T22:30:19.393Z,60.73
2022-10-28T22:33:07.130Z,60.20
2022-10-28T22:35:59.063Z,60.41
2022-10-28T22:38:47.387Z,60.32
2022-10-28T22:41:34.998Z,60.25
2022-10-28T22:44:22.862Z,60.06
2022-10-28T22:47:10.855Z,60.46
2022-10-28T22:49:58.424Z,59.94
2022-10-28T22:52:46.157Z,60.02
2022-10-28T22:55:34.071Z,60.01
2022-10-28T22:58:23.751Z,60.38
2022-10-28T23:01:17.559Z,60.16
2022-10-28T23:04:12.336Z,60.15
2022-10-28T23:06:59.969Z,60.44
2022-10-28T23:09:48.904Z,60.18
2022-10-28T23:12:36.585Z,60.07
2022-10-28T23:15:24.818Z,60.28
2022-10-28T23:18:12.601Z,60.29
2022-10-28T23:21:08.377Z,60.28
2022-10-28T23:23:59.211Z,60.10
2022-10-28T23:26:46.961Z,60.05
2022-10-28T23:29:35.326Z,60.00
2022-10-28T23:32:23.003Z,59.98
2022-10-28T23:35:11.085Z,60.18
2022-10-28T23:38:00.498Z,60.15
2022-10-28T23:41:06.887Z,60.26
2022-10-28T23:43:54.641Z,60.11
2022-10-28T23:46:42.270Z,59.96
2022-10-28T23:49:30.294Z,60.21
2022-10-28T23:52:18.070Z,59.98
2022-10-28T23:55:06.524Z,60.05
2022-10-28T23:57:57.765Z,60.05
